Time;durP1;ratioP1;P1;durP2;ratioP2;P2;SDS_P1;SDS_P2;PMS_P1;PMS_P2;Temp;Humidity;BMP_temperature;BMP_pressure;BME280_temperature;BME280_humidity;BME280_pressure;Samples;Min_cycle;Max_cycle;Signal;HPM_P1;HPM_P2
2022/02/20 00:01:10;;;;;;;4.57;0.82;;;6.10;87.10;;;;;;5080793;28;20111;-74
2022/02/20 00:03:36;;;;;;;3.72;0.98;;;6.10;87.10;;;;;;5097359;28;20054;-74
2022/02/20 00:06:02;;;;;;;4.32;1.17;;;6.10;87.10;;;;;;5097551;28;20024;-73
2022/02/20 00:08:28;;;;;;;3.58;1.00;;;6.10;87.10;;;;;;5096481;28;20071;-73
2022/02/20 00:10:54;;;;;;;6.25;1.30;;;6.10;87.10;;;;;;5115909;28;20098;-73
2022/02/20 00:13:20;;;;;;;5.05;1.25;;;6.10;87.10;;;;;;5115200;28;20058;-73
2022/02/20 00:15:45;;;;;;;4.13;1.10;;;6.10;87.10;;;;;;5080264;28;20040;-73
2022/02/20 00:18:11;;;;;;;4.45;0.98;;;6.10;87.10;;;;;;5079006;28;20545;-74
2022/02/20 00:20:37;;;;;;;4.40;1.00;;;6.20;87.00;;;;;;5114980;28;20421;-73
2022/02/20 00:23:04;;;;;;;3.28;0.90;;;6.10;86.90;;;;;;5114553;28;20043;-73
2022/02/20 00:25:31;;;;;;;3.72;1.05;;;6.10;86.90;;;;;;5114896;28;20188;-74
2022/02/20 00:27:58;;;;;;;3.25;0.93;;;6.00;86.90;;;;;;5116289;28;20039;-74
2022/02/20 00:30:24;;;;;;;3.05;0.80;;;5.90;86.90;;;;;;5080991;28;20047;-73
2022/02/20 00:32:51;;;;;;;3.95;1.20;;;5.80;87.10;;;;;;5116526;28;20396;-74
2022/02/20 00:35:16;;;;;;;2.72;0.70;;;5.70;87.10;;;;;;5096804;28;20062;-73
2022/02/20 00:37:42;;;;;;;3.35;0.80;;;5.70;87.30;;;;;;5097868;28;20484;-73
2022/02/20 00:40:08;;;;;;;2.72;0.77;;;5.60;87.30;;;;;;5115273;28;20483;-73
2022/02/20 00:42:34;;;;;;;3.20;0.95;;;5.50;87.40;;;;;;5114805;28;20460;-73
2022/02/20 00:45:00;;;;;;;0.63;0.40;;;5.50;87.50;;;;;;5097569;28;20078;-73
2022/02/20 00:47:25;;;;;;;2.33;0.60;;;5.30;87.50;;;;;;5115619;28;20039;-73
2022/02/20 00:49:51;;;;;;;1.67;0.68;;;5.40;87.50;;;;;;5097776;28;20039;-73
2022/02/20 00:52:17;;;;;;;2.58;0.63;;;5.30;87.50;;;;;;5080741;28;20039;-74
2022/02/20 00:54:43;;;;;;;2.65;0.63;;;5.30;87.50;;;;;;5094248;28;20047;-73
2022/02/20 00:57:08;;;;;;;1.98;0.57;;;5.30;87.60;;;;;;5114477;28;20488;-73
2022/02/20 00:59:34;;;;;;;1.25;0.47;;;5.20;87.60;;;;;;5078589;28;20039;-74
2022/02/20 01:02:00;;;;;;;2.42;0.93;;;5.20;87.60;;;;;;5061656;28;20491;-73
2022/02/20 01:04:27;;;;;;;3.55;0.50;;;5.20;87.60;;;;;;5114457;28;20043;-73
2022/02/20 01:06:54;;;;;;;1.52;0.35;;;5.20;87.80;;;;;;5114667;28;20392;-73
2022/02/20 01:09:20;;;;;;;0.45;0.35;;;5.20;87.60;;;;;;5096272;28;20035;-74
2022/02/20 01:11:46;;;;;;;2.40;0.57;;;5.20;87.60;;;;;;5115483;28;20043;-73
2022/02/20 01:14:12;;;;;;;2.25;0.40;;;5.20;87.60;;;;;;5097193;28;20528;-73
2022/02/20 01:16:39;;;;;;;0.57;0.40;;;5.20;87.50;;;;;;5095754;28;20142;-74
2022/02/20 01:19:04;;;;;;;1.63;0.57;;;5.20;87.50;;;;;;5095294;28;20075;-73
2022/02/20 01:21:30;;;;;;;2.85;0.57;;;5.20;87.50;;;;;;5096529;28;20059;-73
2022/02/20 01:23:56;;;;;;;1.27;0.52;;;5.20;87.40;;;;;;5114250;28;20044;-73
2022/02/20 01:26:22;;;;;;;1.80;0.60;;;5.20;87.30;;;;;;5114074;28;20071;-74
2022/02/20 01:28:47;;;;;;;1.13;0.32;;;5.20;87.20;;;;;;5095696;28;20043;-73
2022/02/20 01:31:13;;;;;;;2.20;0.47;;;5.20;87.20;;;;;;5114075;28;20032;-73
2022/02/20 01:33:39;;;;;;;2.83;0.40;;;5.30;87.20;;;;;;5114234;28;20501;-73
2022/02/20 01:36:04;;;;;;;0.73;0.30;;;5.30;87.20;;;;;;5097716;28;20389;-73
2022/02/20 01:38:30;;;;;;;1.42;0.30;;;5.30;87.10;;;;;;5116032;28;20423;-73
2022/02/20 01:40:56;;;;;;;0.93;0.45;;;5.30;87.10;;;;;;5096946;28;20492;-73
2022/02/20 01:43:23;;;;;;;1.25;0.30;;;5.30;87.10;;;;;;5114989;28;20031;-73
2022/02/20 01:45:49;;;;;;;0.90;0.30;;;5.30;87.10;;;;;;5114686;28;20484;-73
2022/02/20 01:48:15;;;;;;;0.70;0.22;;;5.20;87.00;;;;;;5095463;28;20120;-73
2022/02/20 01:50:42;;;;;;;1.30;0.43;;;5.30;87.10;;;;;;5095273;28;20419;-73
2022/02/20 01:53:08;;;;;;;1.83;0.63;;;5.20;87.10;;;;;;5113266;28;20043;-73
2022/02/20 01:55:35;;;;;;;3.58;0.57;;;5.20;87.10;;;;;;5115100;28;20040;-74
2022/02/20 01:58:01;;;;;;;1.60;0.45;;;5.30;87.10;;;;;;5096303;28;20036;-74
2022/02/20 02:00:26;;;;;;;1.55;0.50;;;5.20;87.00;;;;;;5114562;28;20100;-74
2022/02/20 02:02:52;;;;;;;0.22;0.22;;;5.30;87.10;;;;;;5114260;28;20028;-74
2022/02/20 02:05:18;;;;;;;0.25;0.25;;;5.30;87.00;;;;;;5113425;28;20457;-73
2022/02/20 02:07:44;;;;;;;0.52;0.30;;;5.30;86.90;;;;;;5113838;28;20032;-73
2022/02/20 02:10:09;;;;;;;0.75;0.32;;;5.20;86.90;;;;;;5113360;28;20031;-74
2022/02/20 02:12:37;;;;;;;0.47;0.25;;;5.30;86.90;;;;;;5113710;28;20050;-73
2022/02/20 02:15:07;;;;;;;0.20;0.17;;;5.30;86.90;;;;;;5095182;28;20044;-74
2022/02/20 02:17:33;;;;;;;0.65;0.15;;;5.30;87.00;;;;;;5114024;28;20484;-73
2022/02/20 02:19:59;;;;;;;0.40;0.20;;;5.30;86.90;;;;;;5113241;28;20047;-74
2022/02/20 02:22:26;;;;;;;1.13;0.30;;;5.30;86.90;;;;;;5094940;28;20039;-74
2022/02/20 02:24:54;;;;;;;2.35;0.20;;;5.30;86.90;;;;;;5112667;28;20043;-73
2022/02/20 02:27:20;;;;;;;0.82;0.47;;;5.20;86.90;;;;;;5112594;28;20048;-74
2022/02/20 02:29:47;;;;;;;1.17;0.50;;;5.20;86.90;;;;;;5113126;28;20048;-73
2022/02/20 02:32:15;;;;;;;0.68;0.40;;;5.20;86.90;;;;;;5116009;28;20439;-73
2022/02/20 02:34:43;;;;;;;0.30;0.28;;;5.20;87.00;;;;;;5116487;28;20473;-74
2022/02/20 02:37:09;;;;;;;0.40;0.40;;;5.20;87.00;;;;;;5115918;28;20544;-74
2022/02/20 02:39:36;;;;;;;2.17;0.47;;;5.20;87.00;;;;;;5080813;28;20092;-74
2022/02/20 02:42:03;;;;;;;0.30;0.30;;;5.20;87.00;;;;;;5116282;28;20039;-74
2022/02/20 02:44:29;;;;;;;0.30;0.30;;;5.20;87.00;;;;;;5097484;28;20051;-74
2022/02/20 02:46:55;;;;;;;1.02;0.22;;;5.30;87.00;;;;;;5097573;28;20382;-74
2022/02/20 02:49:21;;;;;;;0.40;0.40;;;5.20;86.90;;;;;;5115867;28;20039;-74
2022/02/20 02:51:47;;;;;;;0.52;0.30;;;5.30;86.90;;;;;;5116143;28;20381;-74
2022/02/20 02:54:17;;;;;;;0.65;0.30;;;5.30;87.50;;;;;;5098023;28;20039;-73
2022/02/20 02:56:44;;;;;;;0.88;0.30;;;5.20;86.80;;;;;;5097342;28;20047;-74
2022/02/20 02:59:11;;;;;;;0.20;0.20;;;5.30;86.80;;;;;;5097410;28;20043;-73
2022/02/20 03:01:36;;;;;;;1.65;0.32;;;5.20;86.80;;;;;;5097203;28;20048;-74
2022/02/20 03:04:02;;;;;;;0.20;0.20;;;5.20;86.80;;;;;;5115777;28;20481;-74
2022/02/20 03:06:28;;;;;;;0.40;0.20;;;5.20;86.80;;;;;;5097472;28;20040;-74
2022/02/20 03:08:54;;;;;;;0.65;0.30;;;5.20;86.90;;;;;;5097209;28;20040;-74
2022/02/20 03:11:19;;;;;;;0.20;0.20;;;5.20;86.90;;;;;;5115524;28;20096;-74
2022/02/20 03:13:45;;;;;;;0.38;0.20;;;5.20;86.90;;;;;;5115238;28;20032;-73
2022/02/20 03:16:11;;;;;;;0.25;0.20;;;5.20;86.80;;;;;;5115720;28;20466;-73
2022/02/20 03:18:37;;;;;;;0.68;0.20;;;5.20;86.80;;;;;;5097621;28;20047;-73
2022/02/20 03:21:05;;;;;;;0.20;0.20;;;5.20;86.80;;;;;;5114790;28;20082;-73
2022/02/20 03:23:32;;;;;;;0.57;0.30;;;5.20;86.90;;;;;;5096642;28;20031;-73
2022/02/20 03:25:58;;;;;;;1.20;0.32;;;5.20;86.90;;;;;;5097474;28;20042;-74
2022/02/20 03:28:25;;;;;;;0.50;0.25;;;5.10;86.80;;;;;;5096485;28;20401;-74
2022/02/20 03:30:51;;;;;;;0.68;0.20;;;5.20;86.90;;;;;;5114620;28;20096;-73
2022/02/20 03:33:16;;;;;;;0.28;0.20;;;5.20;86.90;;;;;;5097030;28;20044;-73
2022/02/20 03:35:43;;;;;;;0.25;0.25;;;5.10;86.90;;;;;;5115076;28;20047;-74
2022/02/20 03:38:09;;;;;;;0.40;0.30;;;5.10;86.90;;;;;;5096913;28;20059;-73
2022/02/20 03:40:35;;;;;;;0.10;0.10;;;5.10;86.90;;;;;;5096884;28;20491;-74
2022/02/20 03:43:01;;;;;;;0.63;0.20;;;5.10;87.00;;;;;;5115030;28;20119;-74
2022/02/20 03:45:28;;;;;;;1.45;0.20;;;5.10;87.00;;;;;;5115703;28;20045;-74
2022/02/20 03:47:53;;;;;;;0.05;0.05;;;5.10;87.00;;;;;;5097118;28;20458;-73
2022/02/20 03:50:20;;;;;;;1.85;0.10;;;5.10;87.10;;;;;;5115913;28;20071;-73
2022/02/20 03:52:46;;;;;;;0.90;0.10;;;5.10;87.10;;;;;;5097697;28;20122;-73
2022/02/20 03:55:13;;;;;;;0.30;0.30;;;5.10;87.70;;;;;;5115498;28;20028;-74
2022/02/20 03:57:40;;;;;;;0.40;0.17;;;5.10;87.10;;;;;;5114739;28;20051;-74
2022/02/20 04:00:10;;;;;;;0.10;0.10;;;5.10;87.10;;;;;;5079517;28;20039;-73
2022/02/20 04:02:38;;;;;;;0.98;0.20;;;5.10;87.10;;;;;;5078247;28;20063;-74
2022/02/20 04:05:07;;;;;;;0.57;0.22;;;5.20;87.10;;;;;;5112993;28;20040;-73
2022/02/20 04:07:34;;;;;;;0.10;0.10;;;5.10;87.00;;;;;;5096260;28;20184;-74
2022/02/20 04:10:01;;;;;;;0.57;0.13;;;5.10;87.00;;;;;;5114359;28;20147;-74
2022/02/20 04:12:26;;;;;;;0.15;0.13;;;5.10;87.00;;;;;;5114107;28;20050;-74
2022/02/20 04:14:53;;;;;;;0.63;0.30;;;5.10;87.20;;;;;;5114296;28;20044;-73
2022/02/20 04:17:20;;;;;;;0.10;0.10;;;5.20;87.00;;;;;;5114456;28;20081;-74
2022/02/20 04:19:47;;;;;;;0.82;0.20;;;5.20;87.00;;;;;;5095636;28;20534;-73
2022/02/20 04:22:14;;;;;;;0.35;0.20;;;5.10;86.90;;;;;;5096032;28;20100;-74
2022/02/20 04:24:40;;;;;;;0.47;0.10;;;5.10;86.90;;;;;;5096248;28;20046;-73
2022/02/20 04:27:06;;;;;;;0.10;0.10;;;5.10;86.90;;;;;;5095774;28;20035;-73
2022/02/20 04:29:31;;;;;;;0.20;0.20;;;5.10;86.90;;;;;;5114259;28;20036;-73
2022/02/20 04:31:57;;;;;;;0.57;0.30;;;5.10;86.90;;;;;;5078920;28;20047;-73
2022/02/20 04:34:23;;;;;;;2.15;0.55;;;5.10;86.90;;;;;;5096034;28;20061;-73
2022/02/20 04:36:49;;;;;;;1.02;0.30;;;5.10;86.90;;;;;;5078685;28;20044;-74
2022/02/20 04:39:14;;;;;;;0.85;0.40;;;5.10;86.90;;;;;;5113584;28;20481;-74
2022/02/20 04:41:40;;;;;;;0.85;0.43;;;5.10;86.80;;;;;;5095767;28;20405;-73
2022/02/20 04:44:06;;;;;;;1.45;0.50;;;5.10;86.80;;;;;;5114036;28;20084;-73
2022/02/20 04:46:35;;;;;;;0.40;0.35;;;5.10;86.80;;;;;;5095627;28;20155;-74
2022/02/20 04:49:04;;;;;;;0.47;0.40;;;5.20;86.80;;;;;;5113990;28;20048;-73
2022/02/20 04:51:30;;;;;;;1.25;0.30;;;5.10;86.70;;;;;;5078830;28;20135;-74
2022/02/20 04:53:56;;;;;;;1.05;0.40;;;5.20;86.80;;;;;;5112256;28;20047;-73
2022/02/20 04:56:22;;;;;;;2.72;0.45;;;5.10;86.70;;;;;;5113999;28;20044;-74
2022/02/20 04:58:48;;;;;;;1.95;0.40;;;5.20;86.70;;;;;;5113748;28;20058;-73
2022/02/20 05:01:13;;;;;;;0.57;0.50;;;5.20;86.80;;;;;;5095258;28;20044;-74
2022/02/20 05:03:39;;;;;;;0.55;0.30;;;5.20;86.80;;;;;;5114045;28;20084;-73
2022/02/20 05:06:05;;;;;;;1.23;0.40;;;5.20;86.80;;;;;;5113705;28;20067;-74
2022/02/20 05:08:30;;;;;;;0.70;0.50;;;5.20;86.70;;;;;;5113526;28;20035;-74
2022/02/20 05:11:00;;;;;;;2.17;0.50;;;5.20;86.80;;;;;;5113757;28;20044;-74
2022/02/20 05:13:26;;;;;;;0.50;0.40;;;5.10;86.80;;;;;;5095660;28;20051;-74
2022/02/20 05:15:52;;;;;;;0.60;0.40;;;5.20;86.80;;;;;;5113682;28;20092;-73
2022/02/20 05:18:18;;;;;;;0.68;0.55;;;5.10;86.80;;;;;;5114440;28;20049;-74
2022/02/20 05:20:43;;;;;;;1.95;0.60;;;5.20;87.00;;;;;;5115464;28;20130;-74
2022/02/20 05:23:10;;;;;;;1.35;0.60;;;5.10;87.00;;;;;;5095971;28;20515;-74
2022/02/20 05:25:36;;;;;;;1.42;0.50;;;5.10;87.10;;;;;;5115596;28;20039;-74
2022/02/20 05:28:02;;;;;;;1.17;0.65;;;5.10;87.20;;;;;;5114982;28;20118;-74
2022/02/20 05:30:28;;;;;;;1.17;0.70;;;5.10;87.20;;;;;;5096864;28;20400;-74
2022/02/20 05:32:53;;;;;;;1.50;0.80;;;5.10;87.30;;;;;;5080619;28;20103;-74
2022/02/20 05:35:19;;;;;;;1.05;0.70;;;5.20;87.40;;;;;;5115485;28;20047;-74
2022/02/20 05:37:48;;;;;;;2.15;0.70;;;5.10;87.40;;;;;;5116383;28;20085;-74
2022/02/20 05:40:17;;;;;;;2.30;0.80;;;5.10;87.40;;;;;;5114034;28;20090;-74
2022/02/20 05:42:43;;;;;;;1.10;0.80;;;5.00;87.40;;;;;;5096602;28;20044;-74
2022/02/20 05:45:09;;;;;;;2.35;1.02;;;5.10;87.50;;;;;;5116507;28;20043;-74
2022/02/20 05:47:36;;;;;;;1.98;1.13;;;5.00;87.50;;;;;;5098120;28;20430;-74
2022/02/20 05:50:05;;;;;;;1.75;0.93;;;5.00;87.60;;;;;;5116223;28;20071;-74
2022/02/20 05:52:30;;;;;;;2.58;1.15;;;5.00;87.70;;;;;;5115944;28;20389;-75
2022/02/20 05:54:56;;;;;;;1.65;1.00;;;5.00;87.80;;;;;;5117012;28;20043;-74
2022/02/20 05:57:22;;;;;;;2.20;1.00;;;5.00;87.80;;;;;;5117313;28;20465;-74
2022/02/20 05:59:48;;;;;;;1.70;1.00;;;4.90;87.80;;;;;;5082033;28;20485;-75
2022/02/20 06:02:14;;;;;;;1.70;0.90;;;5.00;87.80;;;;;;5118768;28;20062;-74
2022/02/20 06:04:40;;;;;;;2.67;0.98;;;5.00;87.90;;;;;;5099131;28;20062;-75
2022/02/20 06:07:05;;;;;;;2.65;1.00;;;5.10;88.00;;;;;;5118567;28;20059;-75
2022/02/20 06:09:31;;;;;;;2.55;1.10;;;5.00;87.90;;;;;;5102826;28;20061;-75
2022/02/20 06:11:57;;;;;;;3.67;1.13;;;5.00;87.90;;;;;;5118904;28;20509;-75
2022/02/20 06:14:23;;;;;;;3.80;1.60;;;5.10;87.90;;;;;;5100523;28;20047;-75
2022/02/20 06:16:49;;;;;;;1.70;1.17;;;5.10;87.90;;;;;;5099069;28;20039;-75
2022/02/20 06:19:14;;;;;;;2.90;1.13;;;5.10;87.90;;;;;;5117896;28;20036;-75
2022/02/20 06:21:40;;;;;;;3.60;1.38;;;5.10;87.90;;;;;;5099285;28;20086;-77
2022/02/20 06:24:06;;;;;;;2.00;1.25;;;5.20;88.00;;;;;;5097992;28;20442;-76
2022/02/20 06:26:33;;;;;;;2.78;1.40;;;5.20;88.50;;;;;;5116548;28;20032;-76
2022/02/20 06:29:00;;;;;;;4.18;1.42;;;5.30;88.00;;;;;;5082214;28;20051;-76
2022/02/20 06:31:26;;;;;;;2.85;1.40;;;5.30;87.90;;;;;;5115935;28;20035;-75
2022/02/20 06:33:52;;;;;;;4.25;1.55;;;5.40;88.00;;;;;;5081056;28;20481;-75
2022/02/20 06:36:19;;;;;;;3.90;1.60;;;5.40;87.90;;;;;;5066029;28;20536;-76
2022/02/20 06:38:45;;;;;;;3.83;1.42;;;5.40;87.90;;;;;;5115836;28;20032;-76
2022/02/20 06:41:11;;;;;;;7.20;1.63;;;5.50;88.00;;;;;;5115631;28;20039;-76
2022/02/20 06:43:38;;;;;;;3.45;1.30;;;5.50;88.00;;;;;;5080388;28;20435;-76
2022/02/20 06:46:04;;;;;;;4.43;1.48;;;5.60;88.00;;;;;;5063448;28;20075;-76
2022/02/20 06:48:31;;;;;;;3.20;1.30;;;5.60;88.10;;;;;;5080054;28;20485;-76
2022/02/20 06:50:57;;;;;;;3.80;1.38;;;5.60;88.10;;;;;;5115142;28;20531;-76
2022/02/20 06:53:23;;;;;;;4.05;1.20;;;5.70;88.20;;;;;;5080150;28;20047;-76
2022/02/20 06:55:48;;;;;;;4.47;1.58;;;5.70;88.10;;;;;;5097084;28;20039;-77
2022/02/20 06:58:14;;;;;;;2.08;1.00;;;5.80;88.20;;;;;;5080023;28;20378;-76
2022/02/20 07:00:40;;;;;;;5.50;1.52;;;5.80;88.20;;;;;;5096766;28;20040;-77
2022/02/20 07:03:06;;;;;;;4.38;1.42;;;5.90;88.20;;;;;;5094974;28;20043;-77
2022/02/20 07:05:32;;;;;;;5.65;1.42;;;5.90;88.30;;;;;;5063115;28;20039;-77
2022/02/20 07:07:59;;;;;;;3.72;1.40;;;6.00;88.30;;;;;;5115363;28;20667;-77
2022/02/20 07:10:25;;;;;;;4.63;1.48;;;6.10;88.30;;;;;;5096595;28;20084;-76
2022/02/20 07:12:52;;;;;;;4.40;1.40;;;6.20;88.40;;;;;;5081537;28;20047;-77
2022/02/20 07:15:18;;;;;;;4.80;1.38;;;6.20;88.40;;;;;;5115474;28;20047;-77
2022/02/20 07:17:44;;;;;;;5.00;1.50;;;6.20;88.40;;;;;;5062457;28;20042;-77
2022/02/20 07:20:10;;;;;;;4.28;1.58;;;6.30;88.50;;;;;;5085077;28;20063;-77
2022/02/20 07:22:37;;;;;;;3.05;1.23;;;6.30;88.60;;;;;;5116977;28;20032;-77
2022/02/20 07:25:04;;;;;;;5.93;1.40;;;6.40;88.70;;;;;;5114984;28;20122;-77
2022/02/20 07:27:44;;;;;;;6.18;1.10;;;6.50;88.70;;;;;;5115091;28;20115;-77
2022/02/20 07:30:12;;;;;;;3.95;1.25;;;6.50;88.80;;;;;;5080111;28;20505;-76
2022/02/20 07:32:39;;;;;;;2.80;1.25;;;6.60;88.90;;;;;;5114650;28;20040;-76
2022/02/20 07:35:06;;;;;;;4.22;0.90;;;6.60;89.00;;;;;;5096337;28;20460;-76
2022/02/20 07:37:32;;;;;;;3.85;1.13;;;6.70;89.00;;;;;;5096429;28;20051;-76
2022/02/20 07:39:58;;;;;;;3.33;1.13;;;6.70;89.00;;;;;;5114752;28;20047;-76
2022/02/20 07:42:24;;;;;;;3.10;1.05;;;6.80;89.10;;;;;;5114436;28;20377;-77
2022/02/20 07:44:51;;;;;;;5.50;1.10;;;6.90;89.20;;;;;;5096075;28;20051;-77
2022/02/20 07:47:16;;;;;;;1.80;0.75;;;6.90;89.20;;;;;;5114279;28;20164;-77
2022/02/20 07:49:42;;;;;;;2.00;0.93;;;7.00;89.30;;;;;;5096421;28;20073;-77
2022/02/20 07:52:08;;;;;;;1.13;0.82;;;7.00;89.30;;;;;;5095897;28;20085;-77
2022/02/20 07:54:34;;;;;;;2.63;0.93;;;7.10;89.30;;;;;;5114553;28;20527;-76
2022/02/20 07:57:00;;;;;;;3.55;1.20;;;7.20;89.40;;;;;;5096025;28;20534;-77
2022/02/20 07:59:26;;;;;;;3.53;1.00;;;7.40;89.50;;;;;;5114594;28;20046;-76
2022/02/20 08:01:53;;;;;;;2.15;0.90;;;7.40;89.40;;;;;;5095826;28;20489;-77
2022/02/20 08:04:18;;;;;;;2.15;1.00;;;7.40;90.00;;;;;;5114261;28;20035;-77
2022/02/20 08:06:44;;;;;;;2.15;0.90;;;7.40;89.50;;;;;;5095770;28;20542;-77
2022/02/20 08:09:10;;;;;;;5.47;1.20;;;7.50;89.50;;;;;;5114744;28;20059;-76
2022/02/20 08:11:36;;;;;;;2.97;1.15;;;7.60;89.70;;;;;;5113920;28;20067;-76
2022/02/20 08:14:03;;;;;;;2.55;1.00;;;7.70;89.80;;;;;;5113935;28;20048;-77
2022/02/20 08:16:28;;;;;;;2.45;0.95;;;7.80;89.90;;;;;;5078513;28;20493;-77
2022/02/20 08:18:54;;;;;;;2.72;1.33;;;7.80;89.80;;;;;;5079423;28;20087;-77
2022/02/20 08:21:20;;;;;;;1.98;1.00;;;8.00;90.00;;;;;;5114361;28;20031;-76
2022/02/20 08:23:46;;;;;;;2.17;0.98;;;8.00;90.00;;;;;;5114382;28;20459;-77
2022/02/20 08:26:12;;;;;;;1.92;1.13;;;8.10;90.10;;;;;;5095739;28;20047;-77
2022/02/20 08:28:38;;;;;;;1.95;1.30;;;8.20;90.10;;;;;;5095366;28;20035;-76
2022/02/20 08:31:04;;;;;;;2.30;1.15;;;8.20;90.10;;;;;;5095621;28;20044;-76
2022/02/20 08:33:30;;;;;;;2.58;1.10;;;8.30;90.20;;;;;;5095327;28;20063;-77
2022/02/20 08:35:55;;;;;;;3.63;1.35;;;8.40;90.20;;;;;;5095517;28;20044;-77
2022/02/20 08:38:21;;;;;;;1.80;1.30;;;8.40;90.20;;;;;;5095941;28;20428;-77
2022/02/20 08:40:49;;;;;;;2.10;1.25;;;8.40;90.30;;;;;;5095287;28;20061;-77
2022/02/20 08:43:16;;;;;;;2.38;1.23;;;8.50;90.40;;;;;;5095563;28;20132;-77
2022/02/20 08:45:43;;;;;;;2.90;1.25;;;8.60;90.40;;;;;;5078328;28;20507;-77
2022/02/20 08:48:09;;;;;;;1.55;1.10;;;8.60;90.40;;;;;;5113453;28;20038;-77
2022/02/20 08:50:36;;;;;;;2.13;1.38;;;8.70;90.40;;;;;;5113749;28;20122;-76
2022/02/20 08:53:02;;;;;;;3.33;1.60;;;8.70;90.50;;;;;;5113472;28;20052;-76
2022/02/20 08:55:27;;;;;;;3.72;1.73;;;8.70;90.50;;;;;;5113575;28;20050;-76
2022/02/20 08:57:53;;;;;;;3.22;1.70;;;8.80;90.50;;;;;;5113236;28;20052;-76
2022/02/20 09:00:19;;;;;;;3.15;1.67;;;8.90;90.60;;;;;;5078774;28;20035;-76
2022/02/20 09:02:45;;;;;;;2.95;1.70;;;8.90;90.60;;;;;;5078389;28;20066;-77
2022/02/20 09:05:10;;;;;;;4.65;2.00;;;9.00;90.70;;;;;;5078775;28;20047;-76
2022/02/20 09:07:36;;;;;;;6.47;1.90;;;9.00;90.70;;;;;;5094852;28;20050;-76
2022/02/20 09:10:04;;;;;;;4.75;1.95;;;9.10;90.70;;;;;;5061210;28;20036;-76
2022/02/20 09:12:31;;;;;;;5.00;2.10;;;9.10;90.70;;;;;;5113549;28;20040;-76
2022/02/20 09:14:57;;;;;;;5.72;2.10;;;9.20;90.70;;;;;;5094802;28;20389;-76
2022/02/20 09:17:22;;;;;;;3.95;2.05;;;9.20;90.70;;;;;;5094679;28;20040;-76
2022/02/20 09:19:48;;;;;;;4.43;2.10;;;9.30;90.70;;;;;;5094596;28;20044;-76
2022/02/20 09:22:14;;;;;;;5.53;2.67;;;9.30;90.80;;;;;;5112857;28;20039;-76
2022/02/20 09:24:40;;;;;;;4.93;2.42;;;9.40;90.80;;;;;;5094948;28;20484;-76
2022/02/20 09:27:06;;;;;;;8.55;2.97;;;9.40;90.80;;;;;;5094594;28;20035;-76
2022/02/20 09:29:33;;;;;;;7.03;3.05;;;9.50;90.80;;;;;;5113075;28;20048;-75
2022/02/20 09:32:01;;;;;;;10.30;3.15;;;9.50;90.80;;;;;;5112625;28;20039;-76
2022/02/20 09:34:27;;;;;;;7.80;3.38;;;9.60;90.80;;;;;;5077599;28;20097;-75
2022/02/20 09:36:52;;;;;;;8.20;3.83;;;9.60;90.80;;;;;;5113189;28;20051;-76
2022/02/20 09:39:18;;;;;;;7.15;3.70;;;9.70;90.80;;;;;;5094715;28;20036;-75
2022/02/20 09:41:44;;;;;;;6.05;3.33;;;9.80;90.80;;;;;;5115991;28;20044;-76
2022/02/20 09:44:10;;;;;;;7.78;3.63;;;9.80;91.10;;;;;;5116176;28;20043;-76
2022/02/20 09:46:40;;;;;;;10.15;3.90;;;9.80;90.80;;;;;;5081085;28;20035;-75
2022/02/20 09:49:07;;;;;;;7.50;3.60;;;9.80;90.80;;;;;;5116210;28;20111;-75
2022/02/20 09:51:33;;;;;;;11.98;4.00;;;9.90;90.80;;;;;;5098137;28;20042;-75
2022/02/20 09:53:59;;;;;;;10.00;3.60;;;9.90;90.80;;;;;;5097989;28;20126;-75
2022/02/20 09:56:26;;;;;;;10.80;4.28;;;10.00;90.80;;;;;;5116137;28;20453;-76
2022/02/20 09:58:52;;;;;;;10.27;3.80;;;10.10;90.80;;;;;;5116626;28;20047;-75
2022/02/20 10:01:18;;;;;;;9.55;4.03;;;10.10;90.70;;;;;;5116246;28;20502;-74
2022/02/20 10:03:46;;;;;;;10.68;4.07;;;10.20;90.70;;;;;;5097780;28;20036;-74
2022/02/20 10:06:18;;;;;;;11.65;4.20;;;10.30;90.70;;;;;;5115998;28;20084;-74
2022/02/20 10:08:48;;;;;;;12.93;4.00;;;10.30;90.60;;;;;;5115870;28;20182;-74
2022/02/20 10:11:21;;;;;;;11.52;4.03;;;10.30;90.60;;;;;;5116199;28;20082;-74
2022/02/20 10:13:51;;;;;;;13.18;4.45;;;10.30;90.60;;;;;;5095809;28;20401;-74
2022/02/20 10:16:20;;;;;;;13.25;4.10;;;10.30;90.60;;;;;;5098154;28;20067;-74
2022/02/20 10:18:47;;;;;;;12.02;3.72;;;10.30;90.60;;;;;;5116336;28;20051;-74
2022/02/20 10:21:21;;;;;;;9.40;3.33;;;10.30;90.60;;;;;;5097313;28;20050;-74
2022/02/20 10:23:48;;;;;;;12.43;3.60;;;10.40;90.60;;;;;;5098967;28;20483;-74
2022/02/20 10:26:18;;;;;;;8.57;3.45;;;10.40;90.60;;;;;;5116263;28;20043;-74
2022/02/20 10:29:11;;;;;;;11.38;3.85;;;10.40;90.60;;;;;;5097622;28;20063;-74
2022/02/20 10:31:46;;;;;;;11.15;3.78;;;10.40;90.60;;;;;;5114371;28;20040;-73
2022/02/20 10:34:15;;;;;;;13.15;3.95;;;10.40;90.60;;;;;;5114654;28;20061;-74
2022/02/20 10:36:52;;;;;;;10.38;3.55;;;10.40;90.60;;;;;;5097159;28;20047;-74
2022/02/20 10:39:23;;;;;;;12.23;4.07;;;10.40;90.60;;;;;;5115643;28;20047;-74
2022/02/20 10:41:49;;;;;;;;;;;10.40;90.50;;;;;;5078614;28;20032;-73
2022/02/20 10:44:15;;;;;;;15.07;4.30;;;10.40;90.50;;;;;;5096955;28;19911;-74
2022/02/20 10:46:41;;;;;;;16.35;4.53;;;10.50;90.40;;;;;;5096960;28;20039;-74
2022/02/20 10:49:07;;;;;;;10.77;3.80;;;10.60;90.40;;;;;;5080328;28;20062;-75
2022/02/20 10:51:38;;;;;;;12.15;3.67;;;10.40;90.40;;;;;;5097750;28;20032;-75
2022/02/20 10:54:04;;;;;;;12.13;3.60;;;10.50;90.40;;;;;;5080627;28;20039;-75
2022/02/20 10:56:40;;;;;;;16.63;3.90;;;10.50;90.40;;;;;;5063519;28;20043;-75
2022/02/20 10:59:06;;;;;;;15.40;4.30;;;10.50;90.40;;;;;;5095587;28;20044;-75
2022/02/20 11:01:32;;;;;;;15.00;4.13;;;10.50;90.40;;;;;;5080530;28;20071;-76
2022/02/20 11:04:10;;;;;;;10.85;3.60;;;10.50;90.40;;;;;;5080322;28;20389;-74
2022/02/20 11:06:38;;;;;;;14.02;3.50;;;10.50;90.50;;;;;;5115995;28;20039;-75
2022/02/20 11:09:04;;;;;;;13.93;4.47;;;10.40;90.50;;;;;;5115359;28;20520;-74
2022/02/20 11:11:36;;;;;;;15.20;4.40;;;10.50;90.50;;;;;;5096894;28;20040;-74
2022/02/20 11:14:04;;;;;;;13.02;3.50;;;10.50;90.50;;;;;;5115339;28;20047;-73
2022/02/20 11:16:32;;;;;;;11.32;3.47;;;10.50;90.50;;;;;;5096875;28;20040;-74
2022/02/20 11:19:02;;;;;;;10.18;3.05;;;10.40;90.80;;;;;;5114885;28;20044;-74
2022/02/20 11:21:29;;;;;;;14.98;3.80;;;10.40;90.50;;;;;;5096505;28;20047;-74
2022/02/20 11:23:58;;;;;;;15.05;3.47;;;10.40;90.60;;;;;;5114873;28;20044;-74
2022/02/20 11:26:25;;;;;;;16.88;3.83;;;10.30;90.60;;;;;;5113350;28;20039;-74
2022/02/20 11:28:51;;;;;;;13.57;3.95;;;10.40;90.60;;;;;;5097531;28;20047;-75
2022/02/20 11:31:19;;;;;;;11.20;3.28;;;10.40;90.60;;;;;;5115576;28;20397;-74
2022/02/20 11:33:51;;;;;;;15.90;3.55;;;10.40;90.60;;;;;;5114685;28;20031;-74
2022/02/20 11:36:19;;;;;;;15.88;3.63;;;10.50;90.60;;;;;;5114777;28;20057;-74
2022/02/20 11:39:05;;;;;;;16.35;3.45;;;10.40;90.70;;;;;;5096958;28;20049;-74
2022/02/20 11:41:31;;;;;;;11.27;3.33;;;10.50;90.70;;;;;;5115302;28;20148;-74
2022/02/20 11:44:11;;;;;;;11.35;3.08;;;10.40;90.70;;;;;;5115303;28;20046;-74
2022/02/20 11:46:54;;;;;;;15.27;3.35;;;10.40;90.70;;;;;;5080285;28;20093;-74
2022/02/20 11:49:30;;;;;;;12.52;3.45;;;10.40;90.70;;;;;;5114414;28;20044;-74
2022/02/20 11:51:59;;;;;;;13.43;3.80;;;10.40;90.80;;;;;;5115198;28;20039;-74
2022/02/20 11:54:26;;;;;;;10.90;3.30;;;10.40;90.80;;;;;;5114538;28;20040;-75
2022/02/20 11:57:23;;;;;;;13.07;3.05;;;10.40;90.80;;;;;;5096098;28;20423;-75
2022/02/20 12:00:13;;;;;;;12.52;3.10;;;10.40;90.90;;;;;;5096148;28;20051;-74
2022/02/20 12:03:00;;;;;;;12.20;3.38;;;10.40;90.90;;;;;;5116700;28;20096;-74
2022/02/20 12:05:26;;;;;;;14.77;3.83;;;10.50;91.00;;;;;;5101396;28;20081;-73
2022/02/20 12:07:51;;;;;;;13.25;3.00;;;10.30;90.90;;;;;;5079729;28;20048;-73
2022/02/20 12:10:38;;;;;;;13.40;3.08;;;10.30;90.90;;;;;;5097867;28;20047;-74
2022/02/20 12:13:30;;;;;;;10.30;2.65;;;10.30;91.00;;;;;;5101584;28;20051;-74
2022/02/20 12:15:58;;;;;;;8.88;2.35;;;10.30;91.00;;;;;;5103999;28;20043;-75
2022/02/20 12:18:26;;;;;;;9.88;3.17;;;10.30;90.90;;;;;;5102158;28;20510;-74
2022/02/20 12:21:13;;;;;;;8.82;2.65;;;10.30;91.00;;;;;;5101102;28;20054;-74
2022/02/20 12:23:55;;;;;;;10.85;2.92;;;10.30;91.00;;;;;;5088143;28;20044;-76
2022/02/20 12:26:46;;;;;;;10.38;2.65;;;10.20;91.00;;;;;;5083394;28;20040;-75
2022/02/20 12:29:15;;;;;;;11.02;2.90;;;10.20;91.10;;;;;;5097682;28;20040;-74
2022/02/20 12:31:58;;;;;;;11.20;3.22;;;10.20;91.40;;;;;;5080381;28;20053;-74
2022/02/20 12:34:56;;;;;;;10.20;2.90;;;10.10;91.20;;;;;;5096537;28;20063;-75
2022/02/20 12:37:27;;;;;;;10.80;2.65;;;10.00;91.20;;;;;;5096289;28;20168;-75
2022/02/20 12:39:58;;;;;;;10.18;3.05;;;10.10;91.20;;;;;;5081178;28;20473;-76
2022/02/20 12:42:25;;;;;;;8.55;2.70;;;10.00;91.20;;;;;;5099773;28;20484;-75
2022/02/20 12:44:51;;;;;;;11.13;2.75;;;10.10;91.30;;;;;;5083660;28;20069;-75
2022/02/20 12:47:18;;;;;;;11.20;2.90;;;10.00;91.30;;;;;;5064873;28;20126;-75
2022/02/20 12:49:52;;;;;;;8.07;2.35;;;10.00;91.40;;;;;;5095570;28;20145;-76
2022/02/20 12:52:18;;;;;;;14.57;3.40;;;10.00;91.40;;;;;;5061887;28;20046;-75
2022/02/20 12:54:53;;;;;;;9.98;2.65;;;10.00;91.40;;;;;;5095262;28;20048;-75